Airfield :
LOGIN :

Register | Disclaimer

   EN    FR    IT 

 










Legend :    VFR   Marginal VFR   IFR   Intensive IFR   Very Intensive IFR
Visi :
Ceiling :
>= 8 km
>= 3000ft
5 to 8 km
1000 to 3000 ft
1500m to 5 km
500 to 1000 ft
800 to 1500m
200 to 500 ft
< 800m
< 200 ft
Symbols :   Thunderstorms  Fog  Heavy snow  Heavy precipitations  Wind > 20 kt
SIGMETs :     Misc.  Thunderstorms  Icing  Turbulence  Mountain Waves  Volcanic Ashes






- Airport Elevation : 1197 ft
- IATA code : SPM


ETAD - Spangdahlem Ab

CURRENT METAR :
  • 300756Z AUTO 23013G19KT 9999 BKN009 12/11 A3016 RMK AO2 RAB46E49 CIG 007V009 BKN V OVC SLP206 P0000 T01190114 $

EXPIRED METARs :
  • 300711Z AUTO 23012KT 9999 OVC009 12/11 A3015 RMK AO2 SLP202 $
  • 300656Z AUTO 23011G17KT 9999 OVC010 12/11 A3014 RMK AO2 CIG 009 RWY05 SLP199 T01160110 $
  • 300556Z AUTO 22012G18KT 9999 OVC011 12/11 A3012 RMK AO2 SLP192 T01150110 10116 20111 52007 $
  • 300541Z AUTO 23010KT 9999 OVC010 12/11 A3012 RMK AO2 SLP192 $

TAF AMD TAF ETAD
Valid from the 30 at 07:00 until the 31 at 11:00 UTC


300700Z 3007/3111 24010G18KT 9999 BKN008 OVC010 QNH3014INS
BECMG 3006/3007 23010G18KT 9999 SCT005 BKN008 OVC015 QNH3015INS
BECMG 3008/3009 23010G18KT 9999 BKN010 BKN015 QNH3016INS
BECMG 3017/3018 23010KT 9999 SCT015 BKN025 QNH3025INS
BECMG 3023/3024 22008KT 8000 BR BKN008 BKN010 QNH3026INS
BECMG 3105/3106 19005KT 8000 BR BKN010 BKN015 QNH3024INS TX12/3012Z TN09/3105Z



MET'MAP, your aeronautical weather chart ! - Copyright ORBIFLY December 2007 - Disclaimer

ORBIFLY MET'MAP TEAM :

Programming & Development : Alexandra Zaïnal
Concept & original design : Baudouin d'Aumeries
Assistance for programming : Marc-Olivier Méhu
Technical & hardware support : Manuel Goepfert

Contact : metmap@orbifly.com




SOURCES & CREDITS :

   NOAA